createdAt,value
2022-12-18T00:00:31.561Z,26.2
2022-12-18T00:01:33.463Z,26.2
2022-12-18T00:02:35.742Z,26.2
2022-12-18T00:03:38.685Z,26.2
2022-12-18T00:04:42.784Z,26.2
2022-12-18T00:05:44.393Z,26.2
2022-12-18T00:06:46.105Z,26.2
2022-12-18T00:07:50.012Z,26.2
2022-12-18T00:08:51.717Z,26.2
2022-12-18T00:09:53.799Z,26.2
2022-12-18T00:10:55.643Z,26.2
2022-12-18T00:13:20.448Z,26.2
2022-12-18T00:14:22.313Z,26.2
2022-12-18T00:15:24.146Z,26.2
2022-12-18T00:16:25.977Z,26.2
2022-12-18T00:17:27.944Z,26.2
2022-12-18T00:18:29.755Z,26.2
2022-12-18T00:19:31.556Z,26.2
2022-12-18T00:20:33.382Z,26.2
2022-12-18T00:21:35.110Z,26.2
2022-12-18T00:22:36.885Z,26.2
2022-12-18T00:23:39.004Z,26.1
2022-12-18T00:24:43.322Z,26.2
2022-12-18T00:25:44.993Z,26.2
2022-12-18T00:26:46.736Z,26.1
2022-12-18T00:27:48.317Z,26.1
2022-12-18T00:28:50.207Z,26.1
2022-12-18T00:29:51.859Z,26.1
2022-12-18T00:30:53.548Z,26.1
2022-12-18T00:31:55.376Z,26.1
2022-12-18T00:32:57.434Z,26.1
2022-12-18T00:33:59.216Z,26.1
2022-12-18T00:35:01.261Z,26.1
2022-12-18T00:36:03.078Z,26.1
2022-12-18T00:37:04.787Z,26.1
2022-12-18T00:38:06.575Z,26.1
2022-12-18T00:39:08.361Z,26.1
2022-12-18T00:40:10.049Z,26.1
2022-12-18T00:41:11.811Z,26.1
2022-12-18T00:42:13.493Z,26.1
2022-12-18T00:43:15.206Z,26.1
2022-12-18T00:44:17.025Z,26.1
2022-12-18T00:45:18.694Z,26.1
2022-12-18T00:46:20.514Z,26.1
2022-12-18T00:47:22.506Z,26.1
2022-12-18T00:48:24.360Z,26
2022-12-18T00:49:26.181Z,26
2022-12-18T00:50:27.903Z,26.1
2022-12-18T00:51:29.625Z,26.1
2022-12-18T00:52:31.377Z,26
2022-12-18T00:53:33.091Z,26
2022-12-18T00:54:34.788Z,26
2022-12-18T00:55:36.601Z,26
2022-12-18T00:56:48.130Z,26
2022-12-18T00:57:51.655Z,26
2022-12-18T00:58:53.397Z,26
2022-12-18T00:59:55.182Z,26
2022-12-18T01:00:56.849Z,26.1
2022-12-18T01:01:58.956Z,26
2022-12-18T01:03:01.459Z,26
2022-12-18T01:04:03.613Z,26
2022-12-18T01:05:05.353Z,26
2022-12-18T01:06:07.199Z,26
2022-12-18T01:07:09.145Z,26
2022-12-18T01:08:11.462Z,26
2022-12-18T01:09:13.438Z,26
2022-12-18T01:10:15.347Z,26
2022-12-18T01:11:17.137Z,26
2022-12-18T01:12:18.897Z,26
2022-12-18T01:13:20.670Z,26
2022-12-18T01:14:22.411Z,26
2022-12-18T01:15:24.121Z,26
2022-12-18T01:16:25.952Z,26
2022-12-18T01:17:27.937Z,26
2022-12-18T01:18:29.690Z,26
2022-12-18T01:19:31.426Z,26
2022-12-18T01:20:33.151Z,26
2022-12-18T01:21:34.959Z,26
2022-12-18T01:22:36.779Z,26
2022-12-18T01:23:39.590Z,26
2022-12-18T01:24:43.653Z,26
2022-12-18T01:25:45.464Z,26
2022-12-18T01:26:47.240Z,25.9
2022-12-18T01:27:48.898Z,26
2022-12-18T01:28:50.565Z,26
2022-12-18T01:29:52.206Z,26
2022-12-18T01:30:54.008Z,26
2022-12-18T01:31:55.826Z,26
2022-12-18T01:32:58.049Z,26
2022-12-18T01:33:59.822Z,26
2022-12-18T01:35:01.538Z,26
2022-12-18T01:36:03.256Z,26
2022-12-18T01:37:05.231Z,26
2022-12-18T01:38:06.960Z,26
2022-12-18T01:39:08.647Z,25.9
2022-12-18T01:40:10.485Z,25.9
2022-12-18T01:41:12.211Z,25.9
2022-12-18T01:42:13.894Z,26
2022-12-18T01:43:15.614Z,26
2022-12-18T01:44:17.416Z,26
2022-12-18T01:45:19.241Z,26
2022-12-18T01:46:21.553Z,25.9
2022-12-18T01:47:23.739Z,25.9
2022-12-18T01:48:25.515Z,25.9
2022-12-18T01:49:27.265Z,25.9
2022-12-18T01:50:29.037Z,25.9
2022-12-18T01:51:30.928Z,25.9
2022-12-18T01:52:32.783Z,25.9
2022-12-18T01:53:34.421Z,26
2022-12-18T01:54:37.094Z,25.9
2022-12-18T01:55:38.777Z,25.9
2022-12-18T01:56:40.345Z,25.9
2022-12-18T01:57:42.244Z,25.9
2022-12-18T01:58:44.054Z,25.9
2022-12-18T01:59:45.796Z,25.9
2022-12-18T02:00:47.581Z,25.9
2022-12-18T02:01:50.600Z,25.9
2022-12-18T02:02:53.271Z,25.9
2022-12-18T02:03:55.966Z,25.9
2022-12-18T02:04:57.793Z,25.9
2022-12-18T02:05:59.632Z,25.9
2022-12-18T02:07:01.368Z,25.9
2022-12-18T02:08:02.993Z,25.9
2022-12-18T02:09:06.912Z,25.9
2022-12-18T02:10:08.720Z,25.9
2022-12-18T02:11:10.510Z,25.9
2022-12-18T02:12:12.147Z,25.9
2022-12-18T02:13:13.990Z,25.9
2022-12-18T02:14:16.206Z,25.9
2022-12-18T02:15:18.090Z,25.9
2022-12-18T02:16:19.881Z,25.9
2022-12-18T02:17:21.989Z,25.9
2022-12-18T02:18:23.738Z,25.9
2022-12-18T02:19:25.551Z,25.9
2022-12-18T02:20:27.260Z,25.9
2022-12-18T02:21:28.882Z,25.8
2022-12-18T02:22:30.649Z,25.8
2022-12-18T02:23:32.273Z,25.9
2022-12-18T02:24:33.990Z,25.9
2022-12-18T02:25:35.803Z,25.9
2022-12-18T02:26:37.615Z,25.9
2022-12-18T02:27:39.406Z,25.9
2022-12-18T02:28:41.416Z,25.8
2022-12-18T02:29:43.679Z,25.8
2022-12-18T02:30:45.425Z,25.8
2022-12-18T02:31:47.482Z,25.8
2022-12-18T02:32:49.286Z,25.8
2022-12-18T02:33:53.843Z,25.8
2022-12-18T02:34:55.641Z,25.8
2022-12-18T02:35:57.425Z,25.8
2022-12-18T02:36:59.154Z,25.8
2022-12-18T02:38:01.047Z,25.8
2022-12-18T02:39:02.730Z,25.8
2022-12-18T02:40:04.544Z,25.8
2022-12-18T02:41:06.394Z,25.8
2022-12-18T02:42:08.138Z,25.8
2022-12-18T02:43:09.978Z,25.8
2022-12-18T02:44:11.918Z,25.8
2022-12-18T02:45:14.106Z,25.8
2022-12-18T02:46:16.440Z,25.8
2022-12-18T02:47:18.517Z,25.8
2022-12-18T02:48:20.154Z,25.8
2022-12-18T02:49:21.907Z,25.8
2022-12-18T02:50:23.579Z,25.8
2022-12-18T02:51:25.318Z,25.8
2022-12-18T02:52:26.991Z,25.8
2022-12-18T02:53:30.640Z,25.8
2022-12-18T02:54:32.274Z,25.8
2022-12-18T02:55:34.053Z,25.8
2022-12-18T02:56:35.809Z,25.8
2022-12-18T02:57:37.446Z,25.8
2022-12-18T02:58:39.187Z,25.8
2022-12-18T02:59:40.957Z,25.8
2022-12-18T03:00:43.128Z,25.8
2022-12-18T03:01:45.152Z,25.8
2022-12-18T03:02:47.759Z,25.8
2022-12-18T03:03:50.077Z,25.8
2022-12-18T03:04:51.727Z,25.8
2022-12-18T03:05:53.376Z,25.8
2022-12-18T03:06:55.144Z,25.8
2022-12-18T03:07:57.054Z,25.8
2022-12-18T03:08:58.842Z,25.8
2022-12-18T03:10:00.569Z,25.8
2022-12-18T03:11:02.219Z,25.8
2022-12-18T03:12:03.974Z,25.8
2022-12-18T03:13:05.681Z,25.8
2022-12-18T03:14:09.308Z,25.8
2022-12-18T03:15:16.082Z,25.8
2022-12-18T03:16:20.066Z,25.8
2022-12-18T03:17:22.336Z,25.8
2022-12-18T03:18:24.021Z,25.8
2022-12-18T03:19:25.747Z,25.8
2022-12-18T03:20:27.570Z,25.8
2022-12-18T03:21:29.289Z,25.8
2022-12-18T03:22:31.042Z,25.8
2022-12-18T03:23:32.781Z,25.8
2022-12-18T03:24:34.525Z,25.8
2022-12-18T03:25:36.277Z,25.8
2022-12-18T03:26:38.017Z,25.8
2022-12-18T03:27:40.400Z,25.8
2022-12-18T03:28:42.170Z,25.8
2022-12-18T03:29:43.904Z,25.8
2022-12-18T03:30:45.758Z,25.8
2022-12-18T03:31:53.641Z,25.8
2022-12-18T03:32:58.845Z,25.8
2022-12-18T03:34:02.260Z,25.8
2022-12-18T03:35:03.995Z,25.8
2022-12-18T03:36:05.905Z,25.8
2022-12-18T03:37:07.683Z,25.8
2022-12-18T03:38:09.637Z,25.8
2022-12-18T03:39:11.275Z,25.8
2022-12-18T03:40:12.928Z,25.7
2022-12-18T03:41:14.709Z,25.7
2022-12-18T03:42:16.434Z,25.8
2022-12-18T03:43:18.060Z,25.7
2022-12-18T03:44:19.824Z,25.8
2022-12-18T03:45:21.540Z,25.7
2022-12-18T03:46:23.566Z,25.7
2022-12-18T03:47:27.018Z,25.7
2022-12-18T03:48:28.898Z,25.7
2022-12-18T03:49:30.629Z,25.7
2022-12-18T03:50:32.266Z,25.7
2022-12-18T03:51:33.919Z,25.6
2022-12-18T03:52:35.708Z,25.5
2022-12-18T03:53:37.793Z,25.5
2022-12-18T03:54:40.977Z,25.5
2022-12-18T03:55:42.736Z,25.4
2022-12-18T03:56:44.481Z,25.4
2022-12-18T03:57:46.345Z,25.4
2022-12-18T03:58:48.091Z,25.3
2022-12-18T03:59:50.333Z,25.4
2022-12-18T04:00:52.076Z,25.4
2022-12-18T04:01:53.983Z,25.5
2022-12-18T04:02:56.530Z,25.5
2022-12-18T04:03:58.503Z,25.5
2022-12-18T04:05:03.414Z,25.5
2022-12-18T04:06:05.138Z,25.6
2022-12-18T04:07:07.069Z,25.6
2022-12-18T04:08:08.760Z,25.6
2022-12-18T04:09:10.506Z,25.6
2022-12-18T04:10:12.233Z,25.6
2022-12-18T04:11:14.066Z,25.7
2022-12-18T04:12:15.805Z,25.7
2022-12-18T04:13:17.484Z,25.7
2022-12-18T04:14:19.202Z,25.8
2022-12-18T04:15:20.824Z,25.8
2022-12-18T04:16:22.520Z,25.8
2022-12-18T04:17:24.362Z,25.8
2022-12-18T04:18:26.460Z,25.8
2022-12-18T04:19:29.812Z,25.8
2022-12-18T04:20:31.533Z,25.9
2022-12-18T04:21:33.320Z,25.9
2022-12-18T04:22:35.079Z,25.9
2022-12-18T04:23:37.144Z,25.9
2022-12-18T04:24:40.486Z,25.9
2022-12-18T04:25:42.228Z,25.9
2022-12-18T04:26:43.893Z,25.9
2022-12-18T04:27:45.614Z,25.9
2022-12-18T04:28:47.355Z,25.9
2022-12-18T04:29:49.108Z,26
2022-12-18T04:30:50.978Z,26
2022-12-18T04:31:53.312Z,26
2022-12-18T04:32:55.181Z,26
2022-12-18T04:33:57.214Z,26
2022-12-18T04:34:59.109Z,26
2022-12-18T04:36:00.766Z,26
2022-12-18T04:37:02.615Z,26
2022-12-18T04:38:04.513Z,26
2022-12-18T04:39:07.802Z,26
2022-12-18T04:40:09.631Z,26.1
2022-12-18T04:41:11.462Z,26.1
2022-12-18T04:42:13.264Z,26
2022-12-18T04:43:15.054Z,26.1
2022-12-18T04:44:17.154Z,26
2022-12-18T04:45:19.296Z,26
2022-12-18T04:46:21.040Z,26
2022-12-18T04:47:23.126Z,26
2022-12-18T04:48:24.949Z,26
2022-12-18T04:49:26.961Z,26
2022-12-18T04:50:28.976Z,26
2022-12-18T04:51:30.783Z,26
2022-12-18T04:52:32.671Z,26
2022-12-18T04:53:34.316Z,26.1
2022-12-18T04:54:36.069Z,26.1
2022-12-18T04:55:37.748Z,26.1
2022-12-18T04:56:40.838Z,26
2022-12-18T04:57:42.745Z,26
2022-12-18T04:58:44.459Z,26
2022-12-18T04:59:46.333Z,26.1
2022-12-18T05:00:48.007Z,26
2022-12-18T05:01:49.721Z,26.1
2022-12-18T05:02:52.324Z,26
2022-12-18T05:03:55.265Z,26
2022-12-18T05:04:57.527Z,26.1
2022-12-18T05:05:59.394Z,26.1
2022-12-18T05:07:01.376Z,26
2022-12-18T05:08:03.186Z,26.1
2022-12-18T05:09:05.168Z,26
2022-12-18T05:10:07.722Z,26
2022-12-18T05:11:09.459Z,26
2022-12-18T05:12:12.277Z,26
2022-12-18T05:13:14.071Z,26
2022-12-18T05:14:15.802Z,26
2022-12-18T05:15:17.497Z,26
2022-12-18T05:16:19.241Z,26
2022-12-18T05:17:21.347Z,26
2022-12-18T05:18:23.043Z,26
2022-12-18T05:19:24.852Z,26
2022-12-18T05:20:26.924Z,26
2022-12-18T05:21:30.877Z,26
2022-12-18T05:22:32.582Z,26
2022-12-18T05:23:34.424Z,26
2022-12-18T05:24:36.230Z,26
2022-12-18T05:25:38.119Z,26
2022-12-18T05:26:39.862Z,26
2022-12-18T05:27:43.125Z,26
2022-12-18T05:28:44.896Z,26
2022-12-18T05:29:46.743Z,26
2022-12-18T05:30:48.388Z,26
2022-12-18T05:31:50.354Z,26
2022-12-18T05:32:52.497Z,26
2022-12-18T05:33:56.397Z,26
2022-12-18T05:34:58.192Z,26
2022-12-18T05:36:00.212Z,26
2022-12-18T05:37:02.239Z,26
2022-12-18T05:38:04.104Z,26
2022-12-18T05:39:05.952Z,26
2022-12-18T05:40:08.026Z,26
2022-12-18T05:41:09.763Z,26
2022-12-18T05:42:11.557Z,26
2022-12-18T05:43:16.578Z,26
2022-12-18T05:44:23.449Z,26
2022-12-18T05:45:25.164Z,26
2022-12-18T05:46:27.096Z,26
2022-12-18T05:47:29.213Z,26
2022-12-18T05:48:31.111Z,26
2022-12-18T05:49:32.786Z,26
2022-12-18T05:50:34.834Z,26
2022-12-18T05:51:36.760Z,26
2022-12-18T05:52:38.497Z,26
2022-12-18T05:53:40.617Z,26
2022-12-18T05:54:44.090Z,26
2022-12-18T05:55:45.906Z,26
2022-12-18T05:56:48.848Z,26
2022-12-18T05:57:50.878Z,26
2022-12-18T05:58:52.855Z,26
2022-12-18T05:59:57.696Z,26
2022-12-18T06:00:59.350Z,26
2022-12-18T06:02:01.098Z,26
2022-12-18T06:03:03.588Z,26
2022-12-18T06:04:06.171Z,26
2022-12-18T06:05:08.619Z,26
2022-12-18T06:06:10.377Z,26
2022-12-18T06:07:12.399Z,26
2022-12-18T06:08:14.368Z,26
2022-12-18T06:09:16.230Z,26
2022-12-18T06:10:17.952Z,26
2022-12-18T06:11:19.709Z,26
2022-12-18T06:12:21.539Z,26
2022-12-18T06:13:23.300Z,26
2022-12-18T06:14:25.073Z,26
2022-12-18T06:15:26.786Z,26
2022-12-18T06:16:28.489Z,26
2022-12-18T06:17:30.891Z,26
2022-12-18T06:18:32.578Z,26
2022-12-18T06:19:34.339Z,26
2022-12-18T06:20:36.159Z,26
2022-12-18T06:21:38.113Z,26
2022-12-18T06:22:40.067Z,26
2022-12-18T06:23:42.370Z,26
2022-12-18T06:24:45.079Z,26
2022-12-18T06:25:47.353Z,26
2022-12-18T06:26:49.106Z,26
2022-12-18T06:27:50.862Z,26
2022-12-18T06:28:52.714Z,26
2022-12-18T06:29:54.663Z,26
2022-12-18T06:30:56.621Z,26
2022-12-18T06:31:58.353Z,26
2022-12-18T06:33:03.351Z,26
2022-12-18T06:34:04.994Z,26
2022-12-18T06:35:09.838Z,26
2022-12-18T06:36:11.524Z,26
2022-12-18T06:37:13.419Z,26
2022-12-18T06:38:15.465Z,26
2022-12-18T06:39:17.301Z,26
2022-12-18T06:40:19.170Z,26
2022-12-18T06:41:20.925Z,26
2022-12-18T06:42:22.694Z,26
2022-12-18T06:43:24.333Z,26
2022-12-18T06:44:26.202Z,26
2022-12-18T06:45:30.434Z,26
2022-12-18T06:46:32.385Z,26
2022-12-18T06:47:34.155Z,26
2022-12-18T06:48:35.900Z,26
2022-12-18T06:49:37.801Z,26
2022-12-18T06:50:39.511Z,26
2022-12-18T06:51:41.235Z,26
2022-12-18T06:52:43.258Z,26
2022-12-18T06:53:45.309Z,26
2022-12-18T06:54:53.040Z,26
2022-12-18T06:55:54.831Z,26
2022-12-18T06:56:56.649Z,26
2022-12-18T06:57:58.456Z,26
2022-12-18T06:59:00.361Z,26
2022-12-18T07:00:02.114Z,26
2022-12-18T07:01:04.093Z,26
2022-12-18T07:02:06.291Z,26
2022-12-18T07:03:08.644Z,26
2022-12-18T07:04:10.702Z,26
2022-12-18T07:05:12.496Z,26
2022-12-18T07:06:14.302Z,26
2022-12-18T07:07:16.020Z,26
2022-12-18T07:08:18.055Z,26
2022-12-18T07:09:20.079Z,26
2022-12-18T07:10:21.771Z,26
2022-12-18T07:11:23.833Z,26
2022-12-18T07:12:25.628Z,26
2022-12-18T07:13:27.300Z,26
2022-12-18T07:14:29.135Z,26
2022-12-18T07:15:31.752Z,26
2022-12-18T07:16:33.625Z,26
2022-12-18T07:17:35.818Z,25.9
2022-12-18T07:18:37.540Z,26
2022-12-18T07:19:39.223Z,26
2022-12-18T07:20:40.957Z,26
2022-12-18T07:21:42.721Z,26
2022-12-18T07:22:44.466Z,26
2022-12-18T07:23:46.252Z,26
2022-12-18T07:24:48.357Z,26
2022-12-18T07:25:50.121Z,26
2022-12-18T07:26:53.120Z,26
2022-12-18T07:27:54.970Z,26
2022-12-18T07:28:56.866Z,26
2022-12-18T07:29:58.521Z,26
2022-12-18T07:31:00.360Z,26
2022-12-18T07:32:02.333Z,26
2022-12-18T07:33:04.426Z,26
2022-12-18T07:34:06.228Z,26
2022-12-18T07:35:07.881Z,26
2022-12-18T07:36:09.648Z,26
2022-12-18T07:37:11.374Z,26
2022-12-18T07:38:13.101Z,26
2022-12-18T07:39:14.977Z,26
2022-12-18T07:40:16.954Z,26
2022-12-18T07:41:18.668Z,26
2022-12-18T07:42:20.428Z,26
2022-12-18T07:43:27.486Z,26
2022-12-18T07:44:29.218Z,26
2022-12-18T07:45:30.954Z,26
2022-12-18T07:46:32.928Z,26
2022-12-18T07:47:34.712Z,26
2022-12-18T07:48:36.524Z,26
2022-12-18T07:49:38.372Z,26
2022-12-18T07:50:40.130Z,26
2022-12-18T07:51:41.866Z,26
2022-12-18T07:52:43.628Z,26
2022-12-18T07:53:45.284Z,26
2022-12-18T07:54:47.079Z,26
2022-12-18T07:56:18.306Z,26
2022-12-18T07:58:01.580Z,26
2022-12-18T07:59:03.408Z,26.1
2022-12-18T08:00:05.085Z,26.1
2022-12-18T08:01:06.882Z,26.1
2022-12-18T08:02:09.243Z,26.1
2022-12-18T08:03:13.662Z,26.1
2022-12-18T08:04:15.722Z,26
2022-12-18T08:05:17.500Z,26
2022-12-18T08:06:19.204Z,26
2022-12-18T08:07:26.209Z,26
2022-12-18T08:08:27.811Z,26
2022-12-18T08:09:29.636Z,26
2022-12-18T08:10:31.482Z,26
2022-12-18T08:11:36.282Z,26
2022-12-18T08:12:38.119Z,26
2022-12-18T08:13:40.028Z,26
2022-12-18T08:14:43.518Z,26
2022-12-18T08:15:45.313Z,26
2022-12-18T08:16:47.113Z,26
2022-12-18T08:17:49.090Z,26
2022-12-18T08:18:50.927Z,26
2022-12-18T08:19:52.719Z,26
2022-12-18T08:20:54.377Z,26
2022-12-18T08:21:56.070Z,26.1
2022-12-18T08:22:58.131Z,26
2022-12-18T08:23:59.796Z,26
2022-12-18T08:25:01.653Z,26
2022-12-18T08:26:03.366Z,26
2022-12-18T08:28:37.321Z,26
2022-12-18T08:29:39.032Z,26.1
2022-12-18T08:30:40.808Z,26.1
2022-12-18T08:31:43.470Z,26.1
2022-12-18T08:32:45.433Z,26.1
2022-12-18T08:33:47.172Z,26
2022-12-18T08:34:48.817Z,26
2022-12-18T08:35:50.504Z,26
2022-12-18T08:36:52.247Z,26
2022-12-18T08:37:53.961Z,26
2022-12-18T08:38:55.746Z,26
2022-12-18T08:39:57.453Z,26
2022-12-18T08:40:59.108Z,26
2022-12-18T08:42:04.172Z,26
2022-12-18T08:43:12.209Z,26
2022-12-18T08:44:14.179Z,26
2022-12-18T08:45:15.841Z,26
2022-12-18T08:46:18.957Z,26
2022-12-18T08:47:21.269Z,26
2022-12-18T08:48:22.901Z,26
2022-12-18T08:49:24.571Z,26
2022-12-18T08:50:26.445Z,26
2022-12-18T08:51:28.179Z,26
2022-12-18T08:52:30.002Z,26
2022-12-18T08:53:35.567Z,26
2022-12-18T08:54:38.067Z,26
2022-12-18T08:55:39.774Z,26
2022-12-18T08:56:41.492Z,26
2022-12-18T08:57:43.382Z,26
2022-12-18T08:58:46.530Z,26
2022-12-18T08:59:48.458Z,26
2022-12-18T09:00:50.254Z,26
2022-12-18T09:01:52.082Z,26
2022-12-18T09:02:54.729Z,26
2022-12-18T09:03:57.104Z,26
2022-12-18T09:04:58.939Z,26
2022-12-18T09:06:00.656Z,26
2022-12-18T09:07:02.556Z,26
2022-12-18T09:08:04.227Z,26
2022-12-18T09:09:05.873Z,26
2022-12-18T09:10:07.660Z,26
2022-12-18T09:11:09.590Z,26
2022-12-18T09:12:11.336Z,26
2022-12-18T09:13:13.411Z,26
2022-12-18T09:14:15.503Z,26
2022-12-18T09:15:17.454Z,26
2022-12-18T09:16:19.147Z,26
2022-12-18T09:17:21.243Z,26
2022-12-18T09:18:23.427Z,26
2022-12-18T09:19:25.203Z,26
2022-12-18T09:20:27.044Z,26
2022-12-18T09:21:28.758Z,26
2022-12-18T09:22:30.553Z,26
2022-12-18T09:23:32.274Z,26
2022-12-18T09:24:34.009Z,26
2022-12-18T09:25:35.753Z,26
2022-12-18T09:26:37.396Z,26
2022-12-18T09:27:41.237Z,26
2022-12-18T09:28:43.653Z,26
2022-12-18T09:29:46.015Z,26
2022-12-18T09:30:47.930Z,26
2022-12-18T09:31:50.222Z,26
2022-12-18T09:32:52.794Z,26
2022-12-18T09:33:54.467Z,26
2022-12-18T09:34:56.110Z,26
2022-12-18T09:35:58.003Z,26
2022-12-18T09:36:59.991Z,26
2022-12-18T09:38:01.673Z,26
2022-12-18T09:39:07.772Z,26
2022-12-18T09:40:10.664Z,26
2022-12-18T09:41:12.615Z,26
2022-12-18T09:42:15.307Z,26
2022-12-18T09:43:17.040Z,26
2022-12-18T09:44:18.964Z,26
2022-12-18T09:45:21.249Z,26
2022-12-18T09:46:23.222Z,26
2022-12-18T09:47:25.392Z,26
2022-12-18T09:48:27.211Z,26
2022-12-18T09:49:28.950Z,26
2022-12-18T09:50:30.699Z,26
2022-12-18T09:51:32.350Z,26
2022-12-18T09:52:34.133Z,26
2022-12-18T09:53:36.040Z,26
2022-12-18T09:54:37.698Z,26
2022-12-18T09:55:39.559Z,26
2022-12-18T09:56:41.347Z,26
2022-12-18T09:57:43.233Z,26
2022-12-18T09:58:45.002Z,26.1
2022-12-18T09:59:47.217Z,26
2022-12-18T10:00:49.408Z,26.1
2022-12-18T10:01:51.402Z,26.1
2022-12-18T10:02:54.177Z,26.1
2022-12-18T10:03:56.528Z,26.1
2022-12-18T10:04:58.722Z,26.1
2022-12-18T10:06:00.455Z,26.1
2022-12-18T10:07:07.365Z,26.1
2022-12-18T10:08:11.268Z,26.1
2022-12-18T10:09:12.944Z,26
2022-12-18T10:10:14.739Z,26
2022-12-18T10:11:16.503Z,26
2022-12-18T10:12:18.261Z,26
2022-12-18T10:13:20.078Z,26.1
2022-12-18T10:14:26.984Z,26.1
2022-12-18T10:15:28.892Z,26
2022-12-18T10:16:31.186Z,26
2022-12-18T10:17:33.090Z,26.1
2022-12-18T10:18:34.879Z,26.1
2022-12-18T10:19:36.942Z,26.1
2022-12-18T10:20:38.741Z,26
2022-12-18T10:21:40.486Z,26
2022-12-18T10:22:42.278Z,26
2022-12-18T10:23:48.132Z,26.1
2022-12-18T10:24:50.351Z,26.1
2022-12-18T10:25:52.099Z,26.1
2022-12-18T10:26:53.785Z,26.1
2022-12-18T10:27:55.534Z,26.1
2022-12-18T10:29:00.762Z,26.1
2022-12-18T10:30:07.319Z,26.1
2022-12-18T10:31:09.613Z,26.1
2022-12-18T10:32:11.877Z,26.1
2022-12-18T10:33:13.751Z,26.1
2022-12-18T10:34:15.562Z,26.1
2022-12-18T10:35:17.281Z,26.1
2022-12-18T10:36:19.099Z,26.1
2022-12-18T10:37:20.804Z,26.1
2022-12-18T10:38:22.465Z,26.1
2022-12-18T10:39:24.600Z,26.1
2022-12-18T10:40:26.338Z,26.1
2022-12-18T10:41:28.813Z,26
2022-12-18T10:42:31.284Z,26.1
2022-12-18T10:43:32.964Z,26.1
2022-12-18T10:44:34.859Z,26.1
2022-12-18T10:45:36.599Z,26.1
2022-12-18T10:46:38.537Z,26.1
2022-12-18T10:47:41.004Z,26.1
2022-12-18T10:48:43.295Z,26.1
2022-12-18T10:49:46.297Z,26.1
2022-12-18T10:51:10.146Z,26
2022-12-18T10:52:15.383Z,26.1
2022-12-18T10:53:17.105Z,26.1
2022-12-18T10:54:18.843Z,26.1
2022-12-18T10:55:20.556Z,26.1
2022-12-18T10:56:26.641Z,26.1
2022-12-18T10:57:28.386Z,26.1
2022-12-18T10:58:30.041Z,26.1
2022-12-18T10:59:31.838Z,26.1
2022-12-18T11:00:33.649Z,26.1
2022-12-18T11:01:35.342Z,26.1
2022-12-18T11:02:37.863Z,26.1
2022-12-18T11:03:41.136Z,26.1
2022-12-18T11:04:46.349Z,26.1
2022-12-18T11:05:48.111Z,26.1
2022-12-18T11:06:49.773Z,26.1
2022-12-18T11:07:51.492Z,26.1
2022-12-18T11:08:53.344Z,26.1
2022-12-18T11:09:55.043Z,26.1
2022-12-18T11:10:56.878Z,26.1
2022-12-18T11:11:58.560Z,26.1
2022-12-18T11:13:00.363Z,26.1
2022-12-18T11:14:06.761Z,26.1
2022-12-18T11:15:08.566Z,26.1
2022-12-18T11:16:13.192Z,26.1
2022-12-18T11:17:30.491Z,26.1
2022-12-18T11:18:32.449Z,26.1
2022-12-18T11:19:34.478Z,26.1
2022-12-18T11:20:36.349Z,26.1
2022-12-18T11:21:41.045Z,26.1
2022-12-18T11:22:42.686Z,26.1
2022-12-18T11:23:44.407Z,26.1
2022-12-18T11:24:57.399Z,26.1
2022-12-18T11:26:37.517Z,26.1
2022-12-18T11:27:39.239Z,26.2
2022-12-18T11:28:41.424Z,26.1
2022-12-18T11:29:46.829Z,26.2
2022-12-18T11:30:48.683Z,26.1
2022-12-18T11:31:50.327Z,26.2
2022-12-18T11:32:52.309Z,26.2
2022-12-18T11:34:20.092Z,26.1
2022-12-18T11:35:37.967Z,26.1
2022-12-18T11:36:40.018Z,26.2
2022-12-18T11:37:41.673Z,26.2
2022-12-18T11:38:43.821Z,26.2
2022-12-18T11:39:46.392Z,26.1
2022-12-18T11:40:48.212Z,26.1
2022-12-18T11:41:49.882Z,26.1
2022-12-18T11:42:51.642Z,26.2
2022-12-18T11:43:53.651Z,26.1
2022-12-18T11:44:55.440Z,26.1
2022-12-18T11:45:57.267Z,26.1
2022-12-18T11:46:59.235Z,26.1
2022-12-18T11:48:01.206Z,26.1
2022-12-18T11:49:03.078Z,26.1
2022-12-18T11:50:04.785Z,26.1
2022-12-18T11:51:06.683Z,26.1
2022-12-18T11:52:08.796Z,26.1
2022-12-18T11:53:10.563Z,26.1
2022-12-18T11:54:12.215Z,26.1
2022-12-18T11:55:13.859Z,26
2022-12-18T11:56:15.586Z,26
2022-12-18T11:57:17.449Z,25.9
2022-12-18T11:58:19.118Z,25.9
2022-12-18T11:59:20.926Z,25.8
2022-12-18T12:00:22.576Z,25.8
2022-12-18T12:01:24.420Z,25.7
2022-12-18T12:02:26.649Z,25.7
2022-12-18T12:03:28.967Z,25.7
2022-12-18T12:04:34.023Z,25.7
2022-12-18T12:05:36.205Z,25.8
2022-12-18T12:06:38.215Z,25.8
2022-12-18T12:07:40.339Z,25.8
2022-12-18T12:08:42.090Z,25.8
2022-12-18T12:09:43.835Z,25.9
2022-12-18T12:10:45.604Z,25.8
2022-12-18T12:11:47.286Z,25.9
2022-12-18T12:12:49.489Z,25.9
2022-12-18T12:13:51.470Z,25.9
2022-12-18T12:14:53.088Z,25.9
2022-12-18T12:15:55.260Z,25.9
2022-12-18T12:16:57.298Z,25.9
2022-12-18T12:17:59.130Z,26
2022-12-18T12:19:00.896Z,26
2022-12-18T12:20:02.854Z,26
2022-12-18T12:21:04.594Z,26
2022-12-18T12:22:06.540Z,26
2022-12-18T12:23:08.603Z,26
2022-12-18T12:24:10.319Z,26
2022-12-18T12:25:11.999Z,26
2022-12-18T12:26:13.724Z,26
2022-12-18T12:27:15.583Z,26
2022-12-18T12:28:19.000Z,26
2022-12-18T12:29:21.361Z,26
2022-12-18T12:30:24.717Z,26
2022-12-18T12:31:26.372Z,26
2022-12-18T12:32:28.414Z,26.1
2022-12-18T12:33:30.266Z,26.1
2022-12-18T12:34:32.005Z,26
2022-12-18T12:35:39.684Z,26.1
2022-12-18T12:36:41.648Z,26.1
2022-12-18T12:37:43.603Z,26.1
2022-12-18T12:38:50.008Z,26.1
2022-12-18T12:39:54.262Z,26.1
2022-12-18T12:41:02.367Z,26.1
2022-12-18T12:42:05.750Z,26.1
2022-12-18T12:43:07.344Z,26.1
2022-12-18T12:44:09.075Z,26.1
2022-12-18T12:45:11.018Z,26.1
2022-12-18T12:46:13.723Z,26.1
2022-12-18T12:47:16.658Z,26
2022-12-18T12:48:19.420Z,26.1
2022-12-18T12:49:21.384Z,26.1
2022-12-18T12:50:24.725Z,26.1
2022-12-18T12:51:27.846Z,26.1
2022-12-18T12:52:29.824Z,26.1
2022-12-18T12:53:32.145Z,26.1
2022-12-18T12:54:34.793Z,26.1
2022-12-18T12:55:37.211Z,26.1
2022-12-18T12:56:38.964Z,26.1
2022-12-18T12:57:41.183Z,26.1
2022-12-18T12:58:43.852Z,26.1
2022-12-18T12:59:45.637Z,26.1
2022-12-18T13:00:48.083Z,26.1
2022-12-18T13:01:50.663Z,26.1
2022-12-18T13:02:53.405Z,26.1
2022-12-18T13:03:55.154Z,26.1
2022-12-18T13:04:57.864Z,26.1
2022-12-18T13:06:00.188Z,26.1
2022-12-18T13:07:05.178Z,26.1
2022-12-18T13:08:08.500Z,26.1
2022-12-18T13:09:10.446Z,26.1
2022-12-18T13:10:13.416Z,26.1
2022-12-18T13:14:50.655Z,26.3
2022-12-18T13:15:54.868Z,26.3
2022-12-18T13:16:57.599Z,26.3
2022-12-18T13:17:59.560Z,26.3
2022-12-18T13:19:01.751Z,26.2
2022-12-18T13:20:03.469Z,26.2
2022-12-18T13:21:05.586Z,26.1
2022-12-18T13:22:08.687Z,26.2
2022-12-18T13:23:10.672Z,26.1
2022-12-18T13:24:13.333Z,26.1
2022-12-18T13:25:16.189Z,26.1
2022-12-18T13:26:19.887Z,26.2
2022-12-18T13:27:30.976Z,26.1
2022-12-18T13:28:32.957Z,26.2
2022-12-18T13:29:34.923Z,26.1
2022-12-18T13:30:37.103Z,26.1
2022-12-18T13:31:38.843Z,26.1
2022-12-18T13:32:40.546Z,26.1
2022-12-18T13:34:01.893Z,26.1
2022-12-18T13:35:30.587Z,26.1
2022-12-18T13:36:32.881Z,26.1
2022-12-18T13:37:34.700Z,26.1
2022-12-18T13:38:37.991Z,26.1
2022-12-18T13:39:40.242Z,26.1
2022-12-18T13:40:42.368Z,26.1
2022-12-18T13:41:47.931Z,26.1
2022-12-18T13:42:49.804Z,26.1
2022-12-18T13:43:51.887Z,26.1
2022-12-18T13:44:54.098Z,26.1
2022-12-18T13:45:56.492Z,26.1
2022-12-18T13:46:58.520Z,26.1
2022-12-18T13:48:00.304Z,26.1
2022-12-18T13:49:02.227Z,26
2022-12-18T13:50:04.275Z,26
2022-12-18T13:51:07.263Z,26
2022-12-18T13:52:09.820Z,26
2022-12-18T13:53:12.681Z,26.1
2022-12-18T13:54:14.655Z,26
2022-12-18T13:55:16.603Z,26.1
2022-12-18T13:56:21.249Z,26.1
2022-12-18T13:57:24.768Z,26.1
2022-12-18T13:58:26.755Z,26.1
2022-12-18T13:59:29.318Z,26.1
2022-12-18T14:00:31.514Z,26.1
2022-12-18T14:01:33.499Z,26.1
2022-12-18T14:02:36.707Z,26.1
2022-12-18T14:03:39.335Z,26.1
2022-12-18T14:04:42.660Z,26.1
2022-12-18T14:05:44.436Z,26
2022-12-18T14:06:47.668Z,26
2022-12-18T14:07:51.303Z,26.1
2022-12-18T14:08:55.906Z,26.1
2022-12-18T14:10:06.395Z,26.1
2022-12-18T14:11:52.623Z,26.1
2022-12-18T14:12:54.420Z,26.1
2022-12-18T14:13:56.853Z,26.1
2022-12-18T14:14:59.291Z,26.1
2022-12-18T14:16:01.273Z,26.1
2022-12-18T14:17:06.756Z,26.1
2022-12-18T14:18:10.247Z,26.1
2022-12-18T14:19:15.397Z,26.1
2022-12-18T14:20:17.818Z,26.1
2022-12-18T14:21:19.540Z,26.1
2022-12-18T14:22:21.286Z,26.1
2022-12-18T14:23:23.095Z,26.1
2022-12-18T14:24:24.816Z,26.1
2022-12-18T14:25:26.665Z,26.1